createdAt,value
2022-11-20T00:04:47.016Z,5.92
2022-11-20T00:07:13.933Z,5.95
2022-11-20T00:09:40.703Z,5.99
2022-11-20T00:12:07.409Z,5.98
2022-11-20T00:14:34.145Z,5.98
2022-11-20T00:17:00.751Z,5.99
2022-11-20T00:19:27.400Z,5.99
2022-11-20T00:21:55.780Z,5.98
2022-11-20T00:24:22.291Z,5.98
2022-11-20T00:26:48.851Z,5.97
2022-11-20T00:29:16.091Z,5.97
2022-11-20T00:31:42.578Z,5.97
2022-11-20T00:34:10.043Z,5.96
2022-11-20T00:36:36.593Z,5.95
2022-11-20T00:39:03.214Z,5.94
2022-11-20T00:41:30.470Z,5.93
2022-11-20T00:43:57.784Z,5.93
2022-11-20T00:46:25.671Z,5.92
2022-11-20T00:48:52.551Z,5.92
2022-11-20T00:51:20.350Z,5.92
2022-11-20T00:53:46.922Z,5.88
2022-11-20T00:56:15.291Z,5.82
2022-11-20T00:58:43.381Z,5.83
2022-11-20T01:01:14.407Z,5.85
2022-11-20T01:03:42.539Z,5.87
2022-11-20T01:06:14.837Z,5.89
2022-11-20T01:08:41.425Z,5.89
2022-11-20T01:11:09.904Z,5.83
2022-11-20T01:13:40.025Z,5.82
2022-11-20T01:16:14.391Z,5.78
2022-11-20T01:18:42.629Z,5.76
2022-11-20T01:21:11.311Z,5.74
2022-11-20T01:23:38.916Z,5.75
2022-11-20T01:26:07.211Z,5.72
2022-11-20T01:28:34.381Z,5.72
2022-11-20T01:31:01.136Z,5.72
2022-11-20T01:33:28.178Z,5.73
2022-11-20T01:36:03.672Z,5.73
2022-11-20T01:38:30.230Z,5.71
2022-11-20T01:40:56.800Z,5.74
2022-11-20T01:43:24.146Z,5.76
2022-11-20T01:46:04.488Z,5.79
2022-11-20T01:48:37.051Z,5.78
2022-11-20T01:51:04.675Z,5.70
2022-11-20T01:53:32.691Z,5.69
2022-11-20T01:56:00.836Z,5.70
2022-11-20T01:58:30.704Z,5.70
2022-11-20T02:00:57.319Z,5.70
2022-11-20T02:03:24.500Z,5.70
2022-11-20T02:05:50.980Z,5.71
2022-11-20T02:08:18.698Z,5.76
2022-11-20T02:10:45.712Z,5.73
2022-11-20T02:13:31.247Z,5.74
2022-11-20T02:15:57.866Z,5.76
2022-11-20T02:18:24.871Z,5.76
2022-11-20T02:20:55.489Z,5.75
2022-11-20T02:23:37.004Z,5.74
2022-11-20T02:26:23.738Z,5.73
2022-11-20T02:29:04.458Z,5.76
2022-11-20T02:31:35.955Z,5.78
2022-11-20T02:34:02.605Z,5.77
2022-11-20T02:36:31.351Z,5.75
2022-11-20T02:38:57.882Z,5.73
2022-11-20T02:41:31.016Z,5.71
2022-11-20T02:43:57.832Z,5.72
2022-11-20T02:46:24.305Z,5.74
2022-11-20T02:48:50.867Z,5.77
2022-11-20T02:51:17.425Z,5.81
2022-11-20T02:53:43.955Z,5.80
2022-11-20T02:56:10.803Z,5.76
2022-11-20T02:58:37.383Z,5.69
2022-11-20T03:01:04.067Z,5.68
2022-11-20T03:03:30.534Z,5.67
2022-11-20T03:05:59.324Z,5.63
2022-11-20T03:08:26.646Z,5.62
2022-11-20T03:10:53.192Z,5.59
2022-11-20T03:13:19.876Z,5.56
2022-11-20T03:15:46.427Z,5.57
2022-11-20T03:18:14.116Z,5.56
2022-11-20T03:20:40.673Z,5.51
2022-11-20T03:23:07.214Z,5.51
2022-11-20T03:25:33.795Z,5.47
2022-11-20T03:28:00.333Z,5.49
2022-11-20T03:30:30.540Z,5.51
2022-11-20T03:32:57.497Z,5.53
2022-11-20T03:35:24.337Z,5.51
2022-11-20T03:37:50.978Z,5.53
2022-11-20T03:40:17.562Z,5.55
2022-11-20T03:42:46.917Z,5.55
2022-11-20T03:45:14.343Z,5.55
2022-11-20T03:47:40.955Z,5.60
2022-11-20T03:50:08.058Z,5.66
2022-11-20T03:52:34.679Z,5.56
2022-11-20T03:55:01.489Z,5.53
2022-11-20T03:57:57.973Z,5.57
2022-11-20T04:00:24.413Z,5.61
2022-11-20T04:02:50.884Z,5.65
2022-11-20T04:05:17.500Z,5.60
2022-11-20T04:07:44.154Z,5.56
2022-11-20T04:10:10.627Z,5.50
2022-11-20T04:12:37.143Z,5.51
2022-11-20T04:15:03.794Z,5.52
2022-11-20T04:17:30.231Z,5.57
2022-11-20T04:19:56.838Z,5.59
2022-11-20T04:22:23.412Z,5.56
2022-11-20T04:24:49.871Z,5.57
2022-11-20T04:27:16.525Z,5.55
2022-11-20T04:29:43.148Z,5.62
2022-11-20T04:32:09.614Z,5.62
2022-11-20T04:34:36.183Z,5.62
2022-11-20T04:37:02.806Z,5.59
2022-11-20T04:39:29.459Z,5.57
2022-11-20T04:42:14.920Z,5.60
2022-11-20T04:44:41.466Z,5.53
2022-11-20T04:47:07.991Z,5.48
2022-11-20T04:49:34.752Z,5.42
2022-11-20T04:52:01.474Z,5.38
2022-11-20T04:54:28.027Z,5.39
2022-11-20T04:56:54.646Z,5.33
2022-11-20T04:59:21.518Z,5.42
2022-11-20T05:01:48.513Z,5.51
2022-11-20T05:04:15.025Z,5.54
2022-11-20T05:06:41.508Z,5.58
2022-11-20T05:09:08.050Z,5.58
2022-11-20T05:11:34.658Z,5.61
2022-11-20T05:14:01.286Z,5.64
2022-11-20T05:16:27.877Z,5.67
2022-11-20T05:18:54.947Z,5.64
2022-11-20T05:21:22.025Z,5.67
2022-11-20T05:23:48.962Z,5.70
2022-11-20T05:26:16.991Z,5.71
2022-11-20T05:28:44.019Z,5.74
2022-11-20T05:31:11.734Z,5.76
2022-11-20T05:33:40.068Z,5.77
2022-11-20T05:36:06.904Z,5.78
2022-11-20T05:38:33.875Z,5.71
2022-11-20T05:41:04.954Z,5.66
2022-11-20T05:43:35.263Z,5.57
2022-11-20T05:46:02.013Z,5.53
2022-11-20T05:48:28.506Z,5.55
2022-11-20T05:50:56.976Z,5.61
2022-11-20T05:53:24.206Z,5.71
2022-11-20T05:56:04.520Z,5.77
2022-11-20T05:58:31.527Z,5.72
2022-11-20T06:01:05.698Z,5.66
2022-11-20T06:03:32.444Z,5.63
2022-11-20T06:05:59.683Z,5.59
2022-11-20T06:08:26.178Z,5.59
2022-11-20T06:10:52.737Z,5.56
2022-11-20T06:13:19.494Z,5.55
2022-11-20T06:15:53.111Z,5.61
2022-11-20T06:18:20.225Z,5.59
2022-11-20T06:24:15.257Z,5.70
2022-11-20T06:26:44.347Z,5.76
2022-11-20T06:29:11.140Z,5.81
2022-11-20T06:31:38.242Z,5.77
2022-11-20T06:34:06.564Z,5.79
2022-11-20T06:36:33.542Z,5.79
2022-11-20T06:39:00.602Z,5.81
2022-11-20T06:41:30.437Z,5.83
2022-11-20T06:43:56.957Z,5.83
2022-11-20T06:46:23.603Z,5.85
2022-11-20T06:48:52.012Z,5.87
2022-11-20T06:51:20.637Z,5.83
2022-11-20T06:53:47.180Z,5.82
2022-11-20T06:56:13.734Z,5.86
2022-11-20T06:58:40.351Z,5.87
2022-11-20T07:01:09.327Z,5.86
2022-11-20T07:03:36.386Z,5.86
2022-11-20T07:06:03.515Z,5.86
2022-11-20T07:08:30.517Z,5.84
2022-11-20T07:11:00.582Z,5.85
2022-11-20T07:13:28.121Z,5.90
2022-11-20T07:15:55.291Z,5.94
2022-11-20T07:18:21.925Z,5.97
2022-11-20T07:20:48.360Z,6.02
2022-11-20T07:23:14.884Z,6.05
2022-11-20T07:25:41.556Z,6.06
2022-11-20T07:28:56.841Z,6.11
2022-11-20T07:31:23.504Z,6.19
2022-11-20T07:33:50.442Z,6.22
2022-11-20T07:36:16.921Z,6.23
2022-11-20T07:38:43.461Z,6.27
2022-11-20T07:41:10.059Z,6.26
2022-11-20T07:43:41.008Z,6.31
2022-11-20T07:46:08.000Z,6.36
2022-11-20T07:48:34.431Z,6.42
2022-11-20T07:51:00.938Z,6.42
2022-11-20T07:53:27.523Z,6.42
2022-11-20T07:55:54.130Z,6.45
2022-11-20T07:58:21.230Z,6.45
2022-11-20T08:00:47.799Z,6.47
2022-11-20T08:03:14.420Z,6.51
2022-11-20T08:05:41.111Z,6.50
2022-11-20T08:08:08.343Z,6.48
2022-11-20T08:10:34.931Z,6.48
2022-11-20T08:13:20.308Z,6.44
2022-11-20T08:15:53.096Z,6.45
2022-11-20T08:18:35.169Z,6.39
2022-11-20T08:21:02.592Z,6.36
2022-11-20T08:23:29.201Z,6.35
2022-11-20T08:25:55.656Z,6.41
2022-11-20T08:28:22.696Z,6.44
2022-11-20T08:30:50.351Z,6.40
2022-11-20T08:33:17.933Z,6.41
2022-11-20T08:35:44.859Z,6.36
2022-11-20T08:38:11.458Z,6.37
2022-11-20T08:40:37.994Z,6.41
2022-11-20T08:43:04.806Z,6.43
2022-11-20T08:45:34.507Z,6.41
2022-11-20T08:48:02.373Z,6.43
2022-11-20T08:50:29.046Z,6.37
2022-11-20T08:52:55.616Z,6.37
2022-11-20T08:55:22.095Z,6.36
2022-11-20T08:57:51.028Z,6.40
2022-11-20T09:00:17.938Z,6.43
2022-11-20T09:02:44.453Z,6.48
2022-11-20T09:05:10.977Z,6.40
2022-11-20T09:07:37.650Z,6.46
2022-11-20T09:10:23.101Z,6.42
2022-11-20T09:12:52.117Z,6.36
2022-11-20T09:15:19.275Z,6.51
2022-11-20T09:18:03.050Z,6.55
2022-11-20T09:20:30.028Z,6.66
2022-11-20T09:22:57.328Z,6.71
2022-11-20T09:25:24.192Z,6.77
2022-11-20T09:28:00.051Z,6.81
2022-11-20T09:30:27.188Z,6.72
2022-11-20T09:32:54.079Z,6.78
2022-11-20T09:35:20.714Z,6.78
2022-11-20T09:37:47.275Z,6.85
2022-11-20T09:40:19.501Z,6.83
2022-11-20T09:42:57.012Z,6.85
2022-11-20T09:45:29.096Z,6.94
2022-11-20T09:48:04.848Z,7.00
2022-11-20T09:50:41.572Z,6.98
2022-11-20T09:53:25.476Z,7.05
2022-11-20T09:55:52.540Z,7.07
2022-11-20T09:58:40.879Z,7.15
2022-11-20T10:01:12.633Z,7.24
2022-11-20T10:03:39.190Z,7.30
2022-11-20T10:06:09.054Z,7.34
2022-11-20T10:08:52.224Z,7.45
2022-11-20T10:11:24.031Z,7.41
2022-11-20T10:14:16.601Z,7.33
2022-11-20T10:16:48.745Z,7.45
2022-11-20T10:19:24.731Z,7.43
2022-11-20T10:21:58.717Z,7.54
2022-11-20T10:24:34.408Z,7.54
2022-11-20T10:27:04.281Z,7.54
2022-11-20T10:29:35.322Z,7.64
2022-11-20T10:32:19.510Z,7.60
2022-11-20T10:34:46.056Z,7.46
2022-11-20T10:37:15.199Z,7.38
2022-11-20T10:39:44.857Z,7.33
2022-11-20T10:42:14.943Z,7.31
2022-11-20T10:45:05.776Z,7.36
2022-11-20T10:47:33.652Z,7.34
2022-11-20T10:50:06.447Z,7.29
2022-11-20T10:52:43.496Z,7.31
2022-11-20T10:55:13.194Z,7.23
2022-11-20T10:57:58.261Z,7.24
2022-11-20T11:00:25.051Z,7.34
2022-11-20T11:02:53.593Z,7.45
2022-11-20T11:05:55.967Z,7.43
2022-11-20T11:08:23.435Z,7.41
2022-11-20T11:10:53.108Z,7.40
2022-11-20T11:16:33.922Z,7.45
2022-11-20T11:19:07.649Z,7.47
2022-11-20T11:21:34.633Z,7.56
2022-11-20T11:24:19.848Z,7.57
2022-11-20T11:26:59.767Z,7.61
2022-11-20T11:29:56.924Z,7.64
2022-11-20T11:32:24.036Z,7.79
2022-11-20T11:35:02.954Z,7.74
2022-11-20T11:37:48.755Z,7.68
2022-11-20T11:40:25.542Z,7.66
2022-11-20T11:43:00.540Z,7.65
2022-11-20T11:45:27.556Z,7.65
2022-11-20T11:48:14.446Z,7.67
2022-11-20T11:50:48.954Z,7.68
2022-11-20T11:53:17.632Z,7.62
2022-11-20T11:55:44.254Z,7.62
2022-11-20T11:58:19.097Z,7.62
2022-11-20T12:01:05.922Z,7.56
2022-11-20T12:03:38.653Z,7.51
2022-11-20T12:06:15.356Z,7.51
2022-11-20T12:08:57.156Z,7.50
2022-11-20T12:11:29.752Z,7.52
2022-11-20T12:14:13.884Z,7.51
2022-11-20T12:16:40.633Z,7.50
2022-11-20T12:22:01.964Z,7.50
2022-11-20T12:24:30.764Z,7.47
2022-11-20T12:26:57.254Z,7.43
2022-11-20T12:29:42.944Z,7.50
2022-11-20T12:32:15.393Z,7.54
2022-11-20T12:34:48.858Z,7.50
2022-11-20T12:37:27.762Z,7.50
2022-11-20T12:40:00.913Z,7.56
2022-11-20T12:42:59.387Z,7.62
2022-11-20T12:45:44.895Z,7.59
2022-11-20T12:48:11.436Z,7.53
2022-11-20T12:50:47.578Z,7.57
2022-11-20T12:53:24.649Z,7.62
2022-11-20T12:55:54.422Z,7.55
2022-11-20T12:58:21.146Z,7.50
2022-11-20T13:01:02.204Z,7.47
2022-11-20T13:03:32.227Z,7.41
2022-11-20T13:08:52.391Z,7.47
2022-11-20T13:11:40.165Z,7.51
2022-11-20T13:14:26.483Z,7.57
2022-11-20T13:17:03.342Z,7.64
2022-11-20T13:19:33.001Z,7.62
2022-11-20T13:22:05.777Z,7.65
2022-11-20T13:24:33.566Z,7.65
2022-11-20T13:27:01.177Z,7.66
2022-11-20T13:29:28.001Z,7.75
2022-11-20T13:32:08.018Z,7.70
2022-11-20T13:34:37.173Z,7.79
2022-11-20T13:37:06.632Z,7.72
2022-11-20T13:39:34.896Z,7.75
2022-11-20T13:42:03.262Z,7.63
2022-11-20T13:44:34.829Z,7.40
2022-11-20T13:47:01.605Z,7.41
2022-11-20T13:49:30.538Z,7.45
2022-11-20T13:52:06.226Z,7.46
2022-11-20T13:54:53.320Z,7.49
2022-11-20T13:57:29.028Z,7.47
2022-11-20T13:59:55.482Z,7.42
2022-11-20T14:02:23.405Z,7.39
2022-11-20T14:04:51.752Z,7.41
2022-11-20T14:07:19.734Z,7.44
2022-11-20T14:09:50.981Z,7.51
2022-11-20T14:12:19.082Z,7.53
2022-11-20T14:14:50.719Z,7.47
2022-11-20T14:17:19.110Z,7.53
2022-11-20T14:19:46.864Z,7.46
2022-11-20T14:22:21.019Z,7.32
2022-11-20T14:24:48.235Z,7.25
2022-11-20T14:27:17.050Z,7.10
2022-11-20T14:29:44.865Z,7.01
2022-11-20T14:32:11.750Z,6.89
2022-11-20T14:34:40.855Z,6.92
2022-11-20T14:37:16.593Z,6.90
2022-11-20T14:39:49.388Z,6.87
2022-11-20T14:42:21.289Z,6.82
2022-11-20T14:44:48.598Z,6.82
2022-11-20T14:47:17.936Z,6.77
2022-11-20T14:49:45.073Z,6.75
2022-11-20T14:52:14.243Z,6.75
2022-11-20T14:54:45.296Z,6.67
2022-11-20T14:57:21.443Z,6.69
2022-11-20T14:59:48.567Z,6.63
2022-11-20T15:02:15.360Z,6.64
2022-11-20T15:04:48.842Z,6.63
2022-11-20T15:07:29.488Z,6.63
2022-11-20T15:10:00.255Z,6.68
2022-11-20T15:12:26.846Z,6.59
2022-11-20T15:14:53.631Z,6.71
2022-11-20T15:17:20.351Z,6.75
2022-11-20T15:19:46.858Z,6.77
2022-11-20T15:22:14.429Z,6.80
2022-11-20T15:24:40.919Z,6.81
2022-11-20T15:27:08.325Z,6.87
2022-11-20T15:29:34.947Z,6.81
2022-11-20T15:32:01.607Z,6.89
2022-11-20T15:34:28.442Z,6.92
2022-11-20T15:36:54.992Z,6.91
2022-11-20T15:39:21.442Z,6.88
2022-11-20T15:41:50.735Z,6.89
2022-11-20T15:44:17.376Z,6.94
2022-11-20T15:46:45.532Z,6.90
2022-11-20T15:49:15.460Z,6.86
2022-11-20T15:51:44.003Z,6.83
2022-11-20T15:54:12.383Z,6.83
2022-11-20T15:56:39.034Z,6.80
2022-11-20T15:59:05.713Z,6.81
2022-11-20T16:01:32.351Z,6.78
2022-11-20T16:03:59.616Z,6.73
2022-11-20T16:06:26.146Z,6.72
2022-11-20T16:08:52.580Z,6.78
2022-11-20T16:11:19.070Z,6.77
2022-11-20T16:14:04.218Z,6.73
2022-11-20T16:16:35.065Z,6.74
2022-11-20T16:19:01.961Z,6.72
2022-11-20T16:21:31.391Z,6.72
2022-11-20T16:24:01.856Z,6.71
2022-11-20T16:26:28.324Z,6.72
2022-11-20T16:29:04.089Z,6.76
2022-11-20T16:31:30.613Z,6.78
2022-11-20T16:33:58.172Z,6.85
2022-11-20T16:36:26.020Z,6.85
2022-11-20T16:38:57.049Z,6.76
2022-11-20T16:41:31.739Z,6.83
2022-11-20T16:43:59.391Z,6.84
2022-11-20T16:46:26.975Z,6.81
2022-11-20T16:48:54.579Z,6.86
2022-11-20T16:51:21.861Z,6.93
2022-11-20T16:53:49.979Z,6.93
2022-11-20T16:56:18.346Z,6.90
2022-11-20T16:58:45.344Z,6.92
2022-11-20T17:01:13.632Z,6.89
2022-11-20T17:03:40.939Z,6.86
2022-11-20T17:06:17.570Z,6.80
2022-11-20T17:08:44.656Z,6.81
2022-11-20T17:11:12.287Z,6.83
2022-11-20T17:13:40.043Z,6.86
2022-11-20T17:16:08.238Z,6.86
2022-11-20T17:18:35.043Z,6.82
2022-11-20T17:21:04.720Z,6.74
2022-11-20T17:23:35.926Z,6.76
2022-11-20T17:26:06.892Z,6.79
2022-11-20T17:28:34.388Z,6.81
2022-11-20T17:31:01.657Z,6.78
2022-11-20T17:33:28.598Z,6.83
2022-11-20T17:35:55.129Z,6.89
2022-11-20T17:38:21.953Z,6.79
2022-11-20T17:40:48.439Z,6.70
2022-11-20T17:43:15.105Z,6.77
2022-11-20T17:45:42.272Z,6.72
2022-11-20T17:48:08.791Z,6.67
2022-11-20T17:50:35.335Z,6.71
2022-11-20T17:53:01.964Z,6.64
2022-11-20T17:55:54.222Z,6.57
2022-11-20T17:58:22.044Z,6.65
2022-11-20T18:00:48.482Z,6.62
2022-11-20T18:03:16.682Z,6.64
2022-11-20T18:05:43.188Z,6.56
2022-11-20T18:08:09.646Z,6.50
2022-11-20T18:10:36.787Z,6.56
2022-11-20T18:13:03.237Z,6.44
2022-11-20T18:15:29.805Z,6.38
2022-11-20T18:17:56.620Z,6.38
2022-11-20T18:20:33.962Z,6.37
2022-11-20T18:23:03.215Z,6.34
2022-11-20T18:25:29.741Z,6.31
2022-11-20T18:27:56.281Z,6.35
2022-11-20T18:30:23.036Z,6.38
2022-11-20T18:32:49.769Z,6.38
2022-11-20T18:35:16.505Z,6.39
2022-11-20T18:37:42.962Z,6.44
2022-11-20T18:40:09.849Z,6.50
2022-11-20T18:42:55.031Z,6.59
2022-11-20T18:45:21.500Z,6.68
2022-11-20T18:47:47.972Z,6.74
2022-11-20T18:50:14.664Z,6.73
2022-11-20T18:52:43.779Z,6.72
2022-11-20T18:55:11.360Z,6.75
2022-11-20T18:57:37.910Z,6.63
2022-11-20T19:00:08.979Z,6.72
2022-11-20T19:02:41.093Z,6.76
2022-11-20T19:05:09.815Z,6.68
2022-11-20T19:07:36.356Z,6.67
2022-11-20T19:10:04.160Z,6.70
2022-11-20T19:12:31.205Z,6.67
2022-11-20T19:14:57.706Z,6.74
2022-11-20T19:17:24.316Z,6.78
2022-11-20T19:19:51.526Z,6.76
2022-11-20T19:22:19.191Z,6.73
2022-11-20T19:24:46.030Z,6.67
2022-11-20T19:27:12.900Z,6.58
2022-11-20T19:29:39.926Z,6.40
2022-11-20T19:32:06.792Z,6.31
2022-11-20T19:34:33.223Z,6.40
2022-11-20T19:37:00.428Z,6.41
2022-11-20T19:39:27.391Z,6.49
2022-11-20T19:41:54.168Z,6.56
2022-11-20T19:44:20.818Z,6.60
2022-11-20T19:46:47.401Z,6.63
2022-11-20T19:49:14.294Z,6.58
2022-11-20T19:51:48.458Z,6.54
2022-11-20T19:54:16.002Z,6.58
2022-11-20T19:56:42.900Z,6.47
2022-11-20T19:59:09.753Z,6.48
2022-11-20T20:01:36.433Z,6.42
2022-11-20T20:04:04.730Z,6.47
2022-11-20T20:06:31.873Z,6.47
2022-11-20T20:09:05.962Z,6.49
2022-11-20T20:11:33.585Z,6.46
2022-11-20T20:14:01.061Z,6.42
2022-11-20T20:16:28.206Z,6.37
2022-11-20T20:18:55.890Z,6.35
2022-11-20T20:21:22.536Z,6.34
2022-11-20T20:23:55.070Z,6.36
2022-11-20T20:26:23.099Z,6.37
2022-11-20T20:28:50.176Z,6.38
2022-11-20T20:31:18.193Z,6.39
2022-11-20T20:33:45.060Z,6.38
2022-11-20T20:36:12.881Z,6.35
2022-11-20T20:38:39.541Z,6.43
2022-11-20T20:41:06.056Z,6.52
2022-11-20T20:43:52.654Z,6.58
2022-11-20T20:46:19.414Z,6.63
2022-11-20T20:48:50.225Z,6.64
2022-11-20T20:51:19.617Z,6.57
2022-11-20T20:53:46.127Z,6.55
2022-11-20T20:56:13.376Z,6.55
2022-11-20T20:58:40.300Z,6.54
2022-11-20T21:01:10.125Z,6.53
2022-11-20T21:03:37.156Z,6.58
2022-11-20T21:06:04.762Z,6.52
2022-11-20T21:08:31.400Z,6.43
2022-11-20T21:11:02.262Z,6.39
2022-11-20T21:13:29.480Z,6.38
2022-11-20T21:15:55.997Z,6.27
2022-11-20T21:18:23.703Z,6.28
2022-11-20T21:21:09.260Z,6.22
2022-11-20T21:23:36.853Z,6.23
2022-11-20T21:26:05.895Z,6.18
2022-11-20T21:28:33.585Z,6.11
2022-11-20T21:31:04.093Z,6.11
2022-11-20T21:33:41.085Z,6.04
2022-11-20T21:36:08.377Z,6.01
2022-11-20T21:38:35.429Z,6.01
2022-11-20T21:41:03.799Z,6.00
2022-11-20T21:43:30.388Z,6.04
2022-11-20T21:46:04.566Z,6.06
2022-11-20T21:48:31.907Z,6.01
2022-11-20T21:51:15.422Z,6.00
2022-11-20T21:53:42.268Z,5.95
2022-11-20T21:56:09.847Z,5.96
2022-11-20T21:58:37.107Z,5.97
2022-11-20T22:01:11.002Z,5.94
2022-11-20T22:03:37.762Z,5.93
2022-11-20T22:06:04.792Z,5.87
2022-11-20T22:08:31.276Z,5.89
2022-11-20T22:10:59.217Z,5.91
2022-11-20T22:13:45.007Z,5.92
2022-11-20T22:16:11.790Z,5.91
2022-11-20T22:18:43.353Z,5.93
2022-11-20T22:21:10.053Z,5.96
2022-11-20T22:23:37.021Z,5.97
2022-11-20T22:26:03.864Z,5.94
2022-11-20T22:28:30.825Z,5.99
2022-11-20T22:31:00.902Z,6.02
2022-11-20T22:33:28.285Z,6.12
2022-11-20T22:36:08.652Z,6.16
2022-11-20T22:38:39.248Z,6.22
2022-11-20T22:41:07.379Z,6.26
2022-11-20T22:43:34.553Z,6.26
2022-11-20T22:46:08.440Z,6.24
2022-11-20T22:48:37.720Z,6.27
2022-11-20T22:51:12.372Z,6.28
2022-11-20T22:53:39.148Z,6.31
2022-11-20T22:56:06.384Z,6.37
2022-11-20T22:58:34.273Z,6.39
2022-11-20T23:01:10.311Z,6.37
2022-11-20T23:03:37.522Z,6.37
2022-11-20T23:06:04.278Z,6.35
2022-11-20T23:08:30.971Z,6.30
2022-11-20T23:10:58.244Z,6.28
2022-11-20T23:13:25.035Z,6.25
2022-11-20T23:15:51.677Z,6.34
2022-11-20T23:18:18.386Z,6.33
2022-11-20T23:20:46.219Z,6.37
2022-11-20T23:23:32.548Z,6.28
2022-11-20T23:26:00.097Z,6.30
2022-11-20T23:28:26.672Z,6.33
2022-11-20T23:30:53.152Z,6.38
2022-11-20T23:33:19.666Z,6.41
2022-11-20T23:35:46.642Z,6.43
2022-11-20T23:38:13.144Z,6.41
2022-11-20T23:40:41.409Z,6.32
2022-11-20T23:43:17.159Z,6.35
2022-11-20T23:45:44.876Z,6.35
2022-11-20T23:48:12.160Z,6.32
2022-11-20T23:53:20.253Z,6.33
2022-11-20T23:55:47.844Z,6.34
2022-11-20T23:58:14.814Z,6.30
